createdAt,value
2022-12-14T00:02:24.712Z,46.5
2022-12-14T00:07:55.126Z,46.5
2022-12-14T00:13:25.723Z,46.5
2022-12-14T00:18:55.199Z,47
2022-12-14T00:24:25.683Z,47
2022-12-14T00:29:56.293Z,47
2022-12-14T00:35:26.753Z,47
2022-12-14T00:40:57.233Z,47
2022-12-14T00:46:26.808Z,47
2022-12-14T00:51:57.204Z,47
2022-12-14T00:57:27.710Z,47
2022-12-14T01:02:58.305Z,47
2022-12-14T01:08:28.812Z,47
2022-12-14T01:13:59.394Z,47
2022-12-14T01:19:29.927Z,47
2022-12-14T01:25:00.351Z,47
2022-12-14T01:30:30.929Z,47
2022-12-14T01:36:01.541Z,47
2022-12-14T01:41:32.004Z,47
2022-12-14T01:47:01.478Z,47
2022-12-14T01:52:32.035Z,47
2022-12-14T01:58:02.483Z,47
2022-12-14T02:03:33.453Z,47
2022-12-14T02:09:03.564Z,47
2022-12-14T02:14:34.013Z,47
2022-12-14T02:20:04.619Z,47
2022-12-14T02:25:35.134Z,47
2022-12-14T02:31:05.723Z,47
2022-12-14T02:36:36.161Z,47
2022-12-14T02:42:06.668Z,47
2022-12-14T02:47:37.330Z,47
2022-12-14T02:53:07.823Z,47
2022-12-14T02:58:38.438Z,47
2022-12-14T03:04:08.894Z,47
2022-12-14T03:09:39.361Z,47
2022-12-14T03:15:10.135Z,47.5
2022-12-14T03:20:40.576Z,47
2022-12-14T03:26:11.061Z,47
2022-12-14T03:31:41.766Z,47
2022-12-14T03:37:12.144Z,47.5
2022-12-14T03:42:42.733Z,47
2022-12-14T03:48:13.247Z,47
2022-12-14T03:53:43.711Z,46.5
2022-12-14T03:59:13.210Z,46.5
2022-12-14T04:04:43.713Z,46.5
2022-12-14T04:10:14.140Z,46.5
2022-12-14T04:15:43.624Z,46
2022-12-14T04:21:14.127Z,46
2022-12-14T04:26:44.682Z,45.5
2022-12-14T04:32:15.252Z,45.5
2022-12-14T04:37:45.687Z,45.5
2022-12-14T04:43:15.124Z,45.5
2022-12-14T04:48:45.602Z,45.5
2022-12-14T04:54:16.316Z,45.5
2022-12-14T04:59:46.792Z,45
2022-12-14T05:05:17.262Z,45
2022-12-14T05:10:47.883Z,45
2022-12-14T05:16:18.435Z,45
2022-12-14T05:21:48.819Z,45
2022-12-14T05:27:19.423Z,45
2022-12-14T05:32:49.879Z,45
2022-12-14T05:38:20.357Z,45
2022-12-14T05:43:49.878Z,45
2022-12-14T05:49:20.331Z,45
2022-12-14T05:54:49.805Z,45
2022-12-14T06:00:20.298Z,45
2022-12-14T06:05:50.770Z,45
2022-12-14T06:11:21.381Z,45
2022-12-14T06:16:51.872Z,45
2022-12-14T06:22:22.423Z,45
2022-12-14T06:27:52.915Z,45
2022-12-14T06:33:23.459Z,45
2022-12-14T06:38:54.150Z,45
2022-12-14T06:44:24.606Z,45
2022-12-14T06:49:55.087Z,45
2022-12-14T06:55:25.653Z,44.5
2022-12-14T07:00:56.153Z,44.5
2022-12-14T07:06:26.641Z,44.5
2022-12-14T07:11:57.339Z,44.5
2022-12-14T07:17:27.826Z,44.5
2022-12-14T07:22:58.437Z,44.5
2022-12-14T07:28:28.912Z,44.5
2022-12-14T07:33:59.432Z,44.5
2022-12-14T07:39:28.901Z,44.5
2022-12-14T07:44:59.343Z,44.5
2022-12-14T07:50:29.816Z,44.5
2022-12-14T07:56:00.579Z,44.5
2022-12-14T08:01:31.259Z,44.5
2022-12-14T08:07:00.524Z,44.5
2022-12-14T08:12:31.021Z,45
2022-12-14T08:18:01.466Z,45
2022-12-14T08:23:32.788Z,45
2022-12-14T08:29:02.570Z,45
2022-12-14T08:34:33.022Z,45
2022-12-14T08:40:03.594Z,45
2022-12-14T08:45:34.112Z,45
2022-12-14T08:51:04.568Z,45
2022-12-14T08:56:35.166Z,45
2022-12-14T09:02:05.747Z,45
2022-12-14T09:07:36.158Z,45
2022-12-14T09:13:06.757Z,45
2022-12-14T09:18:37.218Z,45
2022-12-14T09:24:07.815Z,45
2022-12-14T09:29:38.399Z,45
2022-12-14T09:35:08.790Z,45
2022-12-14T09:40:38.253Z,45
2022-12-14T09:46:08.767Z,45
2022-12-14T09:51:39.358Z,45
2022-12-14T09:57:09.898Z,45
2022-12-14T10:02:40.702Z,45
2022-12-14T10:08:10.848Z,45
2022-12-14T10:13:41.432Z,45
2022-12-14T10:19:12.316Z,45
2022-12-14T10:24:42.531Z,45
2022-12-14T10:30:13.021Z,45
2022-12-14T10:35:43.641Z,45
2022-12-14T10:41:14.081Z,45
2022-12-14T10:46:44.673Z,45
2022-12-14T10:52:15.224Z,45
2022-12-14T10:57:45.693Z,45
2022-12-14T11:03:16.342Z,45
2022-12-14T11:08:48.124Z,45
2022-12-14T11:14:17.241Z,45
2022-12-14T11:19:47.822Z,45
2022-12-14T11:25:18.306Z,44.5
2022-12-14T11:30:48.863Z,45
2022-12-14T11:36:19.381Z,45
2022-12-14T11:41:49.842Z,44.5
2022-12-14T11:47:20.336Z,44.5
2022-12-14T11:52:49.844Z,44.5
2022-12-14T11:58:20.331Z,45
2022-12-14T12:03:50.895Z,44.5
2022-12-14T12:09:20.266Z,44.5
2022-12-14T12:14:50.735Z,44.5
2022-12-14T12:20:21.329Z,45
2022-12-14T12:25:51.817Z,44.5
2022-12-14T12:31:22.418Z,44.5
2022-12-14T12:37:24.846Z,44.5
2022-12-14T12:42:23.473Z,44.5
2022-12-14T12:47:54.017Z,44.5
2022-12-14T12:53:24.537Z,44.5
2022-12-14T12:58:55.009Z,44.5
2022-12-14T13:04:24.505Z,44.5
2022-12-14T13:09:54.983Z,44.5
2022-12-14T13:15:25.468Z,44.5
2022-12-14T13:20:54.962Z,44.5
2022-12-14T13:26:56.122Z,44.5
2022-12-14T13:31:55.906Z,44.5
2022-12-14T13:37:25.393Z,44.5
2022-12-14T13:42:55.879Z,44.5
2022-12-14T13:48:26.742Z,44.5
2022-12-14T13:53:57.126Z,44.5
2022-12-14T13:59:27.534Z,44.5
2022-12-14T14:04:58.155Z,44.5
2022-12-14T14:10:28.669Z,44.5
2022-12-14T14:16:26.848Z,44.5
2022-12-14T14:21:28.597Z,44.5
2022-12-14T14:26:59.157Z,44.5
2022-12-14T14:32:29.687Z,44.5
2022-12-14T14:38:00.216Z,44.5
2022-12-14T14:43:30.706Z,44.5
2022-12-14T14:49:01.278Z,44.5
2022-12-14T14:55:11.134Z,44.5
2022-12-14T15:00:02.772Z,44.5
2022-12-14T15:05:47.009Z,44.5
2022-12-14T15:11:02.216Z,44.5
2022-12-14T15:16:31.806Z,44.5
2022-12-14T15:22:02.192Z,45
2022-12-14T15:27:32.670Z,44.5
2022-12-14T15:33:02.199Z,45
2022-12-14T15:38:32.653Z,45
2022-12-14T15:44:03.198Z,44.5
2022-12-14T15:49:32.662Z,44.5
2022-12-14T15:55:03.149Z,44.5
2022-12-14T16:00:33.707Z,45
2022-12-14T16:06:04.228Z,44.5
2022-12-14T16:11:34.664Z,44.5
2022-12-14T16:17:05.290Z,44.5
2022-12-14T16:22:35.759Z,44.5
2022-12-14T16:28:06.225Z,44.5
2022-12-14T16:33:36.870Z,45
2022-12-14T16:39:07.389Z,44.5
2022-12-14T16:44:37.966Z,44.5
2022-12-14T16:50:11.494Z,44.5
2022-12-14T16:55:38.969Z,44.5
2022-12-14T17:01:09.594Z,44.5
2022-12-14T17:06:39.987Z,44.5
2022-12-14T17:12:10.598Z,44.5
2022-12-14T17:17:41.048Z,44.5
2022-12-14T17:23:11.531Z,44.5
2022-12-14T17:28:42.145Z,44.5
2022-12-14T17:34:12.724Z,44.5
2022-12-14T17:39:43.211Z,44.5
2022-12-14T17:45:13.862Z,44.5
2022-12-14T17:50:44.272Z,44.5
2022-12-14T17:56:14.844Z,44.5
2022-12-14T18:01:45.586Z,44.5
2022-12-14T18:07:15.924Z,44.5
2022-12-14T18:12:46.399Z,44.5
2022-12-14T18:18:17.033Z,44.5
2022-12-14T18:23:47.485Z,44.5
2022-12-14T18:29:18.078Z,44
2022-12-14T18:34:48.569Z,44
2022-12-14T18:40:19.036Z,43.5
2022-12-14T18:45:49.625Z,43.5
2022-12-14T18:51:20.220Z,43.5
2022-12-14T18:56:50.655Z,43.5
2022-12-14T19:02:20.383Z,43.5
2022-12-14T19:07:50.680Z,43.5
2022-12-14T19:13:25.430Z,43.5
2022-12-14T19:18:51.736Z,43.5
2022-12-14T19:24:22.231Z,43.5
2022-12-14T19:29:52.783Z,43.5
2022-12-14T19:35:23.376Z,43.5
2022-12-14T19:40:53.914Z,43.5
2022-12-14T19:46:23.381Z,43.5
2022-12-14T19:51:53.816Z,43
2022-12-14T19:57:24.351Z,43
2022-12-14T20:02:55.098Z,43.5
2022-12-14T20:08:25.490Z,43.5
2022-12-14T20:13:58.127Z,43.5
2022-12-14T20:19:25.352Z,43.5
2022-12-14T20:24:55.836Z,43.5
2022-12-14T20:30:26.557Z,43
2022-12-14T20:35:56.994Z,43
2022-12-14T20:41:27.509Z,43
2022-12-14T20:46:57.082Z,43
2022-12-14T20:52:27.430Z,43
2022-12-14T20:57:58.028Z,43
2022-12-14T21:03:29.289Z,44
2022-12-14T21:08:58.970Z,44
2022-12-14T21:14:29.460Z,44.5
2022-12-14T21:19:58.972Z,45.5
2022-12-14T21:25:29.420Z,46.5
2022-12-14T21:30:58.897Z,47
2022-12-14T21:36:29.405Z,48
2022-12-14T21:41:58.873Z,48.5
2022-12-14T21:47:29.497Z,50
2022-12-14T21:52:59.873Z,50
2022-12-14T21:58:29.312Z,50.5
2022-12-14T22:03:59.811Z,52
2022-12-14T22:09:30.419Z,51
2022-12-14T22:15:00.880Z,52
2022-12-14T22:20:31.349Z,53
2022-12-14T22:26:02.012Z,52.5
2022-12-14T22:31:32.562Z,52.5
2022-12-14T22:37:02.897Z,52.5
2022-12-14T22:42:32.451Z,52
2022-12-14T22:48:02.891Z,51.5
2022-12-14T22:53:33.768Z,51.5
2022-12-14T22:59:03.981Z,51.5
2022-12-14T23:04:34.453Z,51.5
2022-12-14T23:10:05.069Z,51.5
2022-12-14T23:15:35.586Z,51.5
2022-12-14T23:21:06.011Z,51.5
2022-12-14T23:26:35.495Z,51.5
2022-12-14T23:32:05.970Z,51.5
2022-12-14T23:37:36.446Z,51
2022-12-14T23:43:07.022Z,51
2022-12-14T23:48:37.524Z,51
2022-12-14T23:54:07.960Z,51
2022-12-14T23:59:37.542Z,51
